Terminal Aerodrome Forecast
Issued by NWS Bismarck, ND

Home | Current Version | Previous Version | Text Only | Print | Product List | Glossary Off
Versions: 1 2 3 4 5 6 7 8 9 10 11 12 13 14 15 16 17

000
FTUS43 KBIS 240500
TAFBIS
TAF
KBIS 240533Z 2406/2506 32016G22KT P6SM -SN BKN015 OVC025
     FM241100 32015G21KT P6SM SCT015 BKN080
     FM241600 33014KT P6SM SCT080
     FM250000 28010KT P6SM BKN035 OVC080
     FM250300 30008KT P6SM BKN025 OVC035=

USA.gov is the U.S. government's official web portal to all federal, state and local government web resources and services.